sensor_id;sensor_type;location;lat;lon;timestamp;pressure;altitude;pressure_sealevel;temperature;humidity
32324;BME280;25666;44.350;9.222;2024-03-23T00:55:43;101682.69;;;10.15;100.00
32324;BME280;25666;44.350;9.222;2024-03-23T00:58:08;101687.13;;;10.25;100.00
32324;BME280;25666;44.350;9.222;2024-03-23T01:00:34;101688.59;;;10.22;100.00
32324;BME280;25666;44.350;9.222;2024-03-23T01:03:00;101685.50;;;10.24;100.00
32324;BME280;25666;44.350;9.222;2024-03-23T01:05:25;101690.34;;;10.09;100.00
32324;BME280;25666;44.350;9.222;2024-03-23T01:07:51;101683.00;;;10.05;100.00
32324;BME280;25666;44.350;9.222;2024-03-23T01:10:16;101682.69;;;10.15;100.00
32324;BME280;25666;44.350;9.222;2024-03-23T01:12:42;101684.34;;;10.25;100.00
32324;BME280;25666;44.350;9.222;2024-03-23T01:15:08;101688.22;;;10.06;100.00
32324;BME280;25666;44.350;9.222;2024-03-23T01:17:33;101673.97;;;9.99;100.00
32324;BME280;25666;44.350;9.222;2024-03-23T01:19:59;101682.00;;;10.01;100.00
32324;BME280;25666;44.350;9.222;2024-03-23T01:22:24;101675.25;;;9.93;100.00
32324;BME280;25666;44.350;9.222;2024-03-23T01:24:50;101676.72;;;9.91;100.00
32324;BME280;25666;44.350;9.222;2024-03-23T01:27:16;101673.28;;;9.85;100.00
32324;BME280;25666;44.350;9.222;2024-03-23T01:29:41;101669.84;;;9.88;100.00
32324;BME280;25666;44.350;9.222;2024-03-23T01:32:07;101668.22;;;9.87;100.00
32324;BME280;25666;44.350;9.222;2024-03-23T01:34:33;101675.09;;;9.90;100.00
32324;BME280;25666;44.350;9.222;2024-03-23T01:36:58;101678.00;;;9.76;100.00
32324;BME280;25666;44.350;9.222;2024-03-23T01:39:24;101684.22;;;9.73;100.00
32324;BME280;25666;44.350;9.222;2024-03-23T01:41:49;101679.75;;;9.63;100.00
32324;BME280;25666;44.350;9.222;2024-03-23T01:44:15;101679.28;;;9.70;100.00
32324;BME280;25666;44.350;9.222;2024-03-23T01:46:41;101672.44;;;9.76;100.00
32324;BME280;25666;44.350;9.222;2024-03-23T01:49:07;101669.84;;;9.80;100.00
32324;BME280;25666;44.350;9.222;2024-03-23T01:51:34;101675.06;;;9.81;100.00
32324;BME280;25666;44.350;9.222;2024-03-23T01:54:01;101672.81;;;9.83;100.00
32324;BME280;25666;44.350;9.222;2024-03-23T01:56:33;101669.88;;;9.97;100.00
32324;BME280;25666;44.350;9.222;2024-03-23T01:59:01;101662.69;;;10.04;100.00
32324;BME280;25666;44.350;9.222;2024-03-23T02:01:26;101663.19;;;10.06;100.00
32324;BME280;25666;44.350;9.222;2024-03-23T02:03:52;101659.91;;;10.04;100.00
32324;BME280;25666;44.350;9.222;2024-03-23T02:06:17;101662.03;;;9.99;100.00
32324;BME280;25666;44.350;9.222;2024-03-23T02:08:43;101658.25;;;9.95;100.00
32324;BME280;25666;44.350;9.222;2024-03-23T02:11:09;101658.91;;;9.92;100.00
32324;BME280;25666;44.350;9.222;2024-03-23T02:13:35;101651.53;;;9.87;100.00
32324;BME280;25666;44.350;9.222;2024-03-23T02:16:00;101652.88;;;9.90;100.00
32324;BME280;25666;44.350;9.222;2024-03-23T02:18:26;101649.56;;;9.88;100.00
32324;BME280;25666;44.350;9.222;2024-03-23T02:20:51;101643.53;;;9.86;100.00
32324;BME280;25666;44.350;9.222;2024-03-23T02:23:17;101642.69;;;9.77;100.00
32324;BME280;25666;44.350;9.222;2024-03-23T02:25:44;101640.56;;;9.74;100.00
32324;BME280;25666;44.350;9.222;2024-03-23T02:28:10;101636.56;;;9.57;100.00
32324;BME280;25666;44.350;9.222;2024-03-23T02:30:35;101643.81;;;9.67;100.00
32324;BME280;25666;44.350;9.222;2024-03-23T02:33:01;101641.50;;;9.60;100.00
32324;BME280;25666;44.350;9.222;2024-03-23T02:35:27;101642.59;;;9.51;100.00
32324;BME280;25666;44.350;9.222;2024-03-23T02:37:52;101648.47;;;9.49;100.00
32324;BME280;25666;44.350;9.222;2024-03-23T02:40:20;101645.19;;;9.47;100.00
32324;BME280;25666;44.350;9.222;2024-03-23T02:42:46;101642.06;;;9.40;100.00
32324;BME280;25666;44.350;9.222;2024-03-23T02:45:11;101639.72;;;9.34;100.00
32324;BME280;25666;44.350;9.222;2024-03-23T02:47:37;101641.88;;;9.37;100.00
32324;BME280;25666;44.350;9.222;2024-03-23T02:50:03;101637.31;;;9.41;100.00
32324;BME280;25666;44.350;9.222;2024-03-23T02:52:29;101643.22;;;9.39;100.00
32324;BME280;25666;44.350;9.222;2024-03-23T02:54:55;101647.78;;;9.44;100.00
32324;BME280;25666;44.350;9.222;2024-03-23T02:57:21;101642.91;;;9.49;100.00
32324;BME280;25666;44.350;9.222;2024-03-23T02:59:46;101646.47;;;9.41;100.00
32324;BME280;25666;44.350;9.222;2024-03-23T03:02:13;101638.63;;;9.43;100.00
32324;BME280;25666;44.350;9.222;2024-03-23T03:04:38;101634.06;;;9.47;100.00
32324;BME280;25666;44.350;9.222;2024-03-23T03:07:04;101648.72;;;9.31;100.00
32324;BME280;25666;44.350;9.222;2024-03-23T03:09:29;101652.53;;;9.12;100.00
32324;BME280;25666;44.350;9.222;2024-03-23T03:11:55;101651.22;;;9.10;100.00
32324;BME280;25666;44.350;9.222;2024-03-23T03:14:21;101655.84;;;9.14;100.00
32324;BME280;25666;44.350;9.222;2024-03-23T03:16:46;101662.56;;;9.22;100.00
32324;BME280;25666;44.350;9.222;2024-03-23T03:19:12;101644.41;;;9.16;100.00
32324;BME280;25666;44.350;9.222;2024-03-23T03:21:37;101659.47;;;9.24;100.00
32324;BME280;25666;44.350;9.222;2024-03-23T03:24:03;101659.63;;;9.27;100.00
32324;BME280;25666;44.350;9.222;2024-03-23T03:26:29;101652.22;;;9.45;100.00
32324;BME280;25666;44.350;9.222;2024-03-23T03:28:54;101657.78;;;9.45;100.00
32324;BME280;25666;44.350;9.222;2024-03-23T03:31:20;101649.94;;;9.55;100.00
32324;BME280;25666;44.350;9.222;2024-03-23T03:33:46;101642.41;;;9.47;100.00
32324;BME280;25666;44.350;9.222;2024-03-23T03:36:11;101646.38;;;9.55;100.00
32324;BME280;25666;44.350;9.222;2024-03-23T03:38:37;101638.38;;;9.62;100.00
32324;BME280;25666;44.350;9.222;2024-03-23T03:41:04;101638.59;;;9.74;100.00
32324;BME280;25666;44.350;9.222;2024-03-23T03:43:29;101638.25;;;9.76;100.00
32324;BME280;25666;44.350;9.222;2024-03-23T03:45:57;101638.56;;;9.65;100.00
32324;BME280;25666;44.350;9.222;2024-03-23T03:48:22;101637.59;;;9.70;100.00
32324;BME280;25666;44.350;9.222;2024-03-23T03:50:48;101635.31;;;9.72;100.00
32324;BME280;25666;44.350;9.222;2024-03-23T03:53:14;101633.69;;;9.80;100.00
32324;BME280;25666;44.350;9.222;2024-03-23T03:55:40;101632.06;;;9.79;100.00
32324;BME280;25666;44.350;9.222;2024-03-23T03:58:05;101620.94;;;9.79;100.00
32324;BME280;25666;44.350;9.222;2024-03-23T04:00:31;101616.34;;;9.74;100.00
32324;BME280;25666;44.350;9.222;2024-03-23T04:02:57;101626.00;;;9.77;100.00
32324;BME280;25666;44.350;9.222;2024-03-23T04:05:23;101615.53;;;9.82;100.00
32324;BME280;25666;44.350;9.222;2024-03-23T04:07:48;101619.16;;;9.83;100.00
32324;BME280;25666;44.350;9.222;2024-03-23T04:10:14;101609.34;;;9.94;100.00
32324;BME280;25666;44.350;9.222;2024-03-23T04:12:41;101620.16;;;10.04;100.00
32324;BME280;25666;44.350;9.222;2024-03-23T04:15:07;101616.06;;;10.10;100.00
32324;BME280;25666;44.350;9.222;2024-03-23T04:17:33;101623.41;;;10.06;100.00
32324;BME280;25666;44.350;9.222;2024-03-23T04:20:00;101619.84;;;10.05;100.00
32324;BME280;25666;44.350;9.222;2024-03-23T04:22:25;101613.47;;;10.05;100.00
32324;BME280;25666;44.350;9.222;2024-03-23T04:24:57;101611.50;;;10.05;100.00
32324;BME280;25666;44.350;9.222;2024-03-23T04:27:23;101607.38;;;10.03;100.00
32324;BME280;25666;44.350;9.222;2024-03-23T04:29:50;101615.59;;;10.08;100.00
32324;BME280;25666;44.350;9.222;2024-03-23T04:32:15;101615.25;;;10.09;100.00
32324;BME280;25666;44.350;9.222;2024-03-23T04:34:42;101612.47;;;10.09;100.00
32324;BME280;25666;44.350;9.222;2024-03-23T04:37:09;101601.22;;;10.14;100.00
32324;BME280;25666;44.350;9.222;2024-03-23T04:39:38;101600.22;;;10.19;100.00
32324;BME280;25666;44.350;9.222;2024-03-23T04:42:04;101601.69;;;10.25;100.00
32324;BME280;25666;44.350;9.222;2024-03-23T04:44:30;101597.47;;;10.36;100.00
32324;BME280;25666;44.350;9.222;2024-03-23T04:46:56;101596.63;;;10.44;100.00
32324;BME280;25666;44.350;9.222;2024-03-23T04:49:23;101597.44;;;10.53;100.00
32324;BME280;25666;44.350;9.222;2024-03-23T04:51:49;101602.03;;;10.49;100.00
32324;BME280;25666;44.350;9.222;2024-03-23T04:54:15;101606.94;;;10.52;100.00
32324;BME280;25666;44.350;9.222;2024-03-23T04:56:41;101608.56;;;10.53;100.00
32324;BME280;25666;44.350;9.222;2024-03-23T04:59:06;101597.78;;;10.52;100.00
32324;BME280;25666;44.350;9.222;2024-03-23T05:01:32;101593.16;;;10.56;100.00
32324;BME280;25666;44.350;9.222;2024-03-23T05:04:02;101605.75;;;10.62;100.00
32324;BME280;25666;44.350;9.222;2024-03-23T05:06:28;101599.06;;;10.54;100.00
32324;BME280;25666;44.350;9.222;2024-03-23T05:08:54;101606.59;;;10.62;100.00
32324;BME280;25666;44.350;9.222;2024-03-23T05:11:19;101604.31;;;10.64;100.00
32324;BME280;25666;44.350;9.222;2024-03-23T05:13:46;101602.00;;;10.66;100.00
32324;BME280;25666;44.350;9.222;2024-03-23T05:16:11;101608.22;;;10.63;100.00
32324;BME280;25666;44.350;9.222;2024-03-23T05:18:37;101606.28;;;10.64;100.00
32324;BME280;25666;44.350;9.222;2024-03-23T05:21:03;101601.16;;;10.74;100.00
32324;BME280;25666;44.350;9.222;2024-03-23T05:23:29;101604.09;;;10.87;100.00
32324;BME280;25666;44.350;9.222;2024-03-23T05:25:55;101614.88;;;10.97;100.00
32324;BME280;25666;44.350;9.222;2024-03-23T05:28:21;101608.63;;;11.00;100.00
32324;BME280;25666;44.350;9.222;2024-03-23T05:30:53;101612.59;;;10.99;100.00
32324;BME280;25666;44.350;9.222;2024-03-23T05:33:19;101605.84;;;11.00;100.00
32324;BME280;25666;44.350;9.222;2024-03-23T05:35:45;101612.25;;;11.00;100.00
32324;BME280;25666;44.350;9.222;2024-03-23T05:38:11;101604.72;;;11.01;100.00
32324;BME280;25666;44.350;9.222;2024-03-23T05:40:37;101605.69;;;11.05;100.00
32324;BME280;25666;44.350;9.222;2024-03-23T05:43:06;101599.09;;;11.09;100.00
32324;BME280;25666;44.350;9.222;2024-03-23T05:45:32;101590.22;;;11.16;100.00
32324;BME280;25666;44.350;9.222;2024-03-23T05:47:57;101591.53;;;11.18;100.00
32324;BME280;25666;44.350;9.222;2024-03-23T05:50:23;101580.69;;;11.25;100.00
32324;BME280;25666;44.350;9.222;2024-03-23T05:52:49;101574.94;;;11.31;100.00
32324;BME280;25666;44.350;9.222;2024-03-23T05:55:15;101569.47;;;11.34;100.00
32324;BME280;25666;44.350;9.222;2024-03-23T05:57:41;101581.47;;;11.35;100.00
32324;BME280;25666;44.350;9.222;2024-03-23T06:00:07;101573.25;;;11.38;100.00
32324;BME280;25666;44.350;9.222;2024-03-23T06:02:44;101573.53;;;11.45;100.00
32324;BME280;25666;44.350;9.222;2024-03-23T06:05:11;101570.09;;;11.48;100.00
32324;BME280;25666;44.350;9.222;2024-03-23T06:07:37;101575.97;;;11.47;100.00
32324;BME280;25666;44.350;9.222;2024-03-23T06:10:03;101582.72;;;11.46;100.00
32324;BME280;25666;44.350;9.222;2024-03-23T06:12:29;101583.19;;;11.48;100.00
32324;BME280;25666;44.350;9.222;2024-03-23T06:14:54;101582.47;;;11.59;100.00
32324;BME280;25666;44.350;9.222;2024-03-23T06:17:20;101580.50;;;11.60;100.00
32324;BME280;25666;44.350;9.222;2024-03-23T06:19:46;101579.16;;;11.66;100.00
32324;BME280;25666;44.350;9.222;2024-03-23T06:22:11;101567.25;;;11.86;100.00
32324;BME280;25666;44.350;9.222;2024-03-23T06:24:37;101567.19;;;11.95;100.00
32324;BME280;25666;44.350;9.222;2024-03-23T06:27:02;101572.69;;;12.03;100.00
32324;BME280;25666;44.350;9.222;2024-03-23T06:29:28;101570.66;;;12.12;100.00
32324;BME280;25666;44.350;9.222;2024-03-23T06:31:54;101576.59;;;11.90;100.00
32324;BME280;25666;44.350;9.222;2024-03-23T06:34:20;101575.63;;;11.86;100.00
32324;BME280;25666;44.350;9.222;2024-03-23T06:36:47;101576.91;;;11.89;100.00
32324;BME280;25666;44.350;9.222;2024-03-23T06:39:13;101570.59;;;12.00;100.00
32324;BME280;25666;44.350;9.222;2024-03-23T06:41:42;101577.59;;;12.06;100.00
32324;BME280;25666;44.350;9.222;2024-03-23T06:44:07;101571.88;;;12.23;100.00
32324;BME280;25666;44.350;9.222;2024-03-23T06:46:33;101563.09;;;12.33;100.00
32324;BME280;25666;44.350;9.222;2024-03-23T06:48:58;101562.88;;;12.39;100.00
32324;BME280;25666;44.350;9.222;2024-03-23T06:51:24;101560.31;;;12.33;100.00
32324;BME280;25666;44.350;9.222;2024-03-23T06:53:49;101551.09;;;12.33;100.00
32324;BME280;25666;44.350;9.222;2024-03-23T06:56:15;101546.34;;;12.33;100.00
32324;BME280;25666;44.350;9.222;2024-03-23T06:58:41;101547.34;;;12.29;100.00
32324;BME280;25666;44.350;9.222;2024-03-23T07:01:06;101546.00;;;12.35;100.00
32324;BME280;25666;44.350;9.222;2024-03-23T07:03:32;101542.31;;;12.43;100.00
32324;BME280;25666;44.350;9.222;2024-03-23T07:05:58;101544.63;;;12.41;100.00
32324;BME280;25666;44.350;9.222;2024-03-23T07:08:24;101543.88;;;12.32;100.00
32324;BME280;25666;44.350;9.222;2024-03-23T07:10:49;101544.47;;;12.38;100.00
32324;BME280;25666;44.350;9.222;2024-03-23T07:13:15;101540.53;;;12.39;100.00
32324;BME280;25666;44.350;9.222;2024-03-23T07:15:42;101541.81;;;12.41;100.00
32324;BME280;25666;44.350;9.222;2024-03-23T07:18:08;101543.34;;;12.39;100.00
32324;BME280;25666;44.350;9.222;2024-03-23T07:20:33;101533.13;;;12.43;100.00
32324;BME280;25666;44.350;9.222;2024-03-23T07:22:59;101534.25;;;12.42;100.00
32324;BME280;25666;44.350;9.222;2024-03-23T07:25:24;101533.88;;;12.64;100.00
32324;BME280;25666;44.350;9.222;2024-03-23T07:27:53;101536.72;;;13.00;100.00
32324;BME280;25666;44.350;9.222;2024-03-23T07:30:18;101546.09;;;13.28;100.00
32324;BME280;25666;44.350;9.222;2024-03-23T07:32:44;101548.53;;;13.54;100.00
32324;BME280;25666;44.350;9.222;2024-03-23T07:35:10;101555.06;;;13.70;100.00
32324;BME280;25666;44.350;9.222;2024-03-23T07:37:36;101560.75;;;13.86;100.00
32324;BME280;25666;44.350;9.222;2024-03-23T07:40:01;101548.94;;;14.05;100.00
32324;BME280;25666;44.350;9.222;2024-03-23T07:42:27;101536.03;;;14.28;100.00
32324;BME280;25666;44.350;9.222;2024-03-23T07:44:53;101544.84;;;14.42;100.00
32324;BME280;25666;44.350;9.222;2024-03-23T07:47:21;101548.03;;;14.84;100.00
32324;BME280;25666;44.350;9.222;2024-03-23T07:49:47;101551.66;;;15.47;100.00
32324;BME280;25666;44.350;9.222;2024-03-23T07:52:12;101537.38;;;15.52;100.00
32324;BME280;25666;44.350;9.222;2024-03-23T07:54:38;101528.22;;;15.39;100.00
32324;BME280;25666;44.350;9.222;2024-03-23T07:57:03;101525.78;;;15.53;100.00
32324;BME280;25666;44.350;9.222;2024-03-23T07:59:29;101519.50;;;15.44;100.00
32324;BME280;25666;44.350;9.222;2024-03-23T08:01:57;101533.53;;;15.44;100.00
32324;BME280;25666;44.350;9.222;2024-03-23T08:04:22;101527.59;;;15.15;100.00
32324;BME280;25666;44.350;9.222;2024-03-23T08:06:48;101533.41;;;15.06;100.00
32324;BME280;25666;44.350;9.222;2024-03-23T08:09:13;101532.09;;;15.03;100.00
32324;BME280;25666;44.350;9.222;2024-03-23T08:11:39;101535.38;;;14.90;100.00
32324;BME280;25666;44.350;9.222;2024-03-23T08:14:05;101538.78;;;14.83;100.00
32324;BME280;25666;44.350;9.222;2024-03-23T08:16:31;101545.75;;;14.74;100.00
32324;BME280;25666;44.350;9.222;2024-03-23T08:18:56;101540.75;;;14.67;100.00
32324;BME280;25666;44.350;9.222;2024-03-23T08:21:22;101527.97;;;14.54;100.00
32324;BME280;25666;44.350;9.222;2024-03-23T08:23:48;101546.78;;;14.54;100.00
32324;BME280;25666;44.350;9.222;2024-03-23T08:26:15;101552.44;;;14.41;100.00
32324;BME280;25666;44.350;9.222;2024-03-23T08:28:41;101556.25;;;14.49;100.00
32324;BME280;25666;44.350;9.222;2024-03-23T08:31:08;101547.16;;;14.52;100.00
32324;BME280;25666;44.350;9.222;2024-03-23T08:33:34;101537.72;;;14.44;100.00
32324;BME280;25666;44.350;9.222;2024-03-23T08:38:29;101535.94;;;14.52;100.00
32324;BME280;25666;44.350;9.222;2024-03-23T08:43:28;101524.31;;;14.66;100.00
32324;BME280;25666;44.350;9.222;2024-03-23T08:45:53;101523.41;;;14.62;100.00
32324;BME280;25666;44.350;9.222;2024-03-23T08:48:20;101526.56;;;14.76;100.00
32324;BME280;25666;44.350;9.222;2024-03-23T08:50:46;101520.78;;;14.69;100.00
32324;BME280;25666;44.350;9.222;2024-03-23T08:53:12;101517.06;;;14.65;100.00
32324;BME280;25666;44.350;9.222;2024-03-23T08:55:38;101520.69;;;14.65;100.00
32324;BME280;25666;44.350;9.222;2024-03-23T08:58:04;101508.56;;;14.61;100.00
32324;BME280;25666;44.350;9.222;2024-03-23T09:00:34;101503.69;;;14.58;100.00
32324;BME280;25666;44.350;9.222;2024-03-23T09:02:59;101505.31;;;14.59;100.00
32324;BME280;25666;44.350;9.222;2024-03-23T09:05:27;101508.38;;;14.70;100.00
32324;BME280;25666;44.350;9.222;2024-03-23T09:07:54;101517.38;;;14.75;100.00
32324;BME280;25666;44.350;9.222;2024-03-23T09:10:20;101514.63;;;14.79;100.00
32324;BME280;25666;44.350;9.222;2024-03-23T09:12:45;101515.19;;;14.69;100.00
32324;BME280;25666;44.350;9.222;2024-03-23T09:15:11;101522.03;;;14.56;100.00
32324;BME280;25666;44.350;9.222;2024-03-23T09:17:36;101514.63;;;14.63;100.00
32324;BME280;25666;44.350;9.222;2024-03-23T09:20:02;101521.66;;;14.57;100.00
32324;BME280;25666;44.350;9.222;2024-03-23T09:22:29;101515.16;;;14.53;100.00
32324;BME280;25666;44.350;9.222;2024-03-23T09:24:55;101515.97;;;14.54;100.00
32324;BME280;25666;44.350;9.222;2024-03-23T09:27:21;101515.81;;;14.62;100.00
32324;BME280;25666;44.350;9.222;2024-03-23T09:29:46;101517.00;;;14.77;100.00
32324;BME280;25666;44.350;9.222;2024-03-23T09:32:12;101503.63;;;14.86;100.00
32324;BME280;25666;44.350;9.222;2024-03-23T09:34:38;101512.31;;;14.81;100.00
32324;BME280;25666;44.350;9.222;2024-03-23T09:37:04;101506.88;;;14.88;100.00
32324;BME280;25666;44.350;9.222;2024-03-23T09:39:29;101506.53;;;14.89;100.00
32324;BME280;25666;44.350;9.222;2024-03-23T09:41:58;101502.28;;;14.95;100.00
32324;BME280;25666;44.350;9.222;2024-03-23T09:44:24;101495.03;;;14.94;100.00
32324;BME280;25666;44.350;9.222;2024-03-23T09:46:52;101501.72;;;14.90;100.00
32324;BME280;25666;44.350;9.222;2024-03-23T09:49:18;101501.97;;;14.85;100.00
32324;BME280;25666;44.350;9.222;2024-03-23T09:51:44;101508.41;;;14.85;100.00
32324;BME280;25666;44.350;9.222;2024-03-23T09:54:10;101500.00;;;14.85;100.00
32324;BME280;25666;44.350;9.222;2024-03-23T09:56:36;101509.97;;;14.98;100.00
32324;BME280;25666;44.350;9.222;2024-03-23T09:59:02;101496.66;;;15.11;100.00
32324;BME280;25666;44.350;9.222;2024-03-23T10:01:32;101492.28;;;15.29;100.00
32324;BME280;25666;44.350;9.222;2024-03-23T10:03:58;101477.78;;;15.43;100.00
32324;BME280;25666;44.350;9.222;2024-03-23T10:06:24;101485.31;;;15.54;100.00
32324;BME280;25666;44.350;9.222;2024-03-23T10:08:52;101483.22;;;15.51;100.00
32324;BME280;25666;44.350;9.222;2024-03-23T10:11:20;101477.38;;;15.41;100.00
32324;BME280;25666;44.350;9.222;2024-03-23T10:13:47;101475.28;;;15.38;100.00
32324;BME280;25666;44.350;9.222;2024-03-23T10:16:21;101479.09;;;15.30;100.00
32324;BME280;25666;44.350;9.222;2024-03-23T10:18:48;101477.94;;;15.15;100.00
32324;BME280;25666;44.350;9.222;2024-03-23T10:21:15;101472.16;;;15.08;100.00
32324;BME280;25666;44.350;9.222;2024-03-23T10:23:44;101469.25;;;15.05;100.00
32324;BME280;25666;44.350;9.222;2024-03-23T10:26:24;101466.34;;;15.01;100.00
32324;BME280;25666;44.350;9.222;2024-03-23T10:28:54;101468.19;;;15.09;100.00
32324;BME280;25666;44.350;9.222;2024-03-23T10:31:20;101453.34;;;15.09;100.00
32324;BME280;25666;44.350;9.222;2024-03-23T10:33:47;101452.91;;;15.07;100.00
32324;BME280;25666;44.350;9.222;2024-03-23T10:36:13;101458.16;;;14.92;100.00
32324;BME280;25666;44.350;9.222;2024-03-23T10:38:44;101459.59;;;14.86;100.00
32324;BME280;25666;44.350;9.222;2024-03-23T10:41:10;101446.31;;;14.83;100.00
32324;BME280;25666;44.350;9.222;2024-03-23T10:43:37;101451.81;;;14.80;100.00
32324;BME280;25666;44.350;9.222;2024-03-23T10:46:04;101446.31;;;14.83;100.00
32324;BME280;25666;44.350;9.222;2024-03-23T10:48:31;101445.38;;;14.79;100.00
32324;BME280;25666;44.350;9.222;2024-03-23T10:50:57;101439.59;;;14.72;100.00
32324;BME280;25666;44.350;9.222;2024-03-23T10:53:26;101445.94;;;14.69;100.00
32324;BME280;25666;44.350;9.222;2024-03-23T10:55:54;101448.09;;;14.60;100.00
32324;BME280;25666;44.350;9.222;2024-03-23T10:58:25;101452.34;;;14.54;100.00
32324;BME280;25666;44.350;9.222;2024-03-23T11:00:52;101453.97;;;14.55;100.00
32324;BME280;25666;44.350;9.222;2024-03-23T11:03:36;101446.09;;;14.45;100.00
32324;BME280;25666;44.350;9.222;2024-03-23T11:06:03;101438.31;;;14.38;100.00
32324;BME280;25666;44.350;9.222;2024-03-23T11:08:40;101445.38;;;14.48;100.00
32324;BME280;25666;44.350;9.222;2024-03-23T11:11:21;101445.38;;;14.48;100.00
32324;BME280;25666;44.350;9.222;2024-03-23T11:13:51;101436.88;;;14.44;100.00
32324;BME280;25666;44.350;9.222;2024-03-23T11:16:25;101430.28;;;14.37;100.00
32324;BME280;25666;44.350;9.222;2024-03-23T11:22:02;101425.78;;;14.20;100.00
32324;BME280;25666;44.350;9.222;2024-03-23T11:24:28;101418.09;;;14.17;100.00
32324;BME280;25666;44.350;9.222;2024-03-23T11:26:54;101405.28;;;14.16;100.00
32324;BME280;25666;44.350;9.222;2024-03-23T11:29:20;101420.50;;;14.31;100.00
32324;BME280;25666;44.350;9.222;2024-03-23T11:31:51;101397.78;;;14.20;100.00
32324;BME280;25666;44.350;9.222;2024-03-23T11:34:18;101392.28;;;14.24;100.00
32324;BME280;25666;44.350;9.222;2024-03-23T11:36:44;101386.31;;;14.25;100.00
32324;BME280;25666;44.350;9.222;2024-03-23T11:39:18;101388.31;;;14.25;100.00
32324;BME280;25666;44.350;9.222;2024-03-23T11:41:55;101393.84;;;14.21;100.00
32324;BME280;25666;44.350;9.222;2024-03-23T11:44:23;101381.84;;;14.36;100.00
32324;BME280;25666;44.350;9.222;2024-03-23T11:46:50;101378.63;;;14.50;100.00
32324;BME280;25666;44.350;9.222;2024-03-23T11:49:24;101364.50;;;14.62;100.00
32324;BME280;25666;44.350;9.222;2024-03-23T11:51:51;101352.81;;;14.76;100.00
32324;BME280;25666;44.350;9.222;2024-03-23T11:54:20;101352.78;;;14.91;100.00
32324;BME280;25666;44.350;9.222;2024-03-23T11:56:59;101355.59;;;14.91;100.00
32324;BME280;25666;44.350;9.222;2024-03-23T12:01:57;101339.53;;;14.73;100.00
32324;BME280;25666;44.350;9.222;2024-03-23T12:04:27;101324.34;;;14.74;100.00
32324;BME280;25666;44.350;9.222;2024-03-23T12:09:38;101317.22;;;14.61;100.00
32324;BME280;25666;44.350;9.222;2024-03-23T12:12:13;101322.50;;;14.46;100.00
32324;BME280;25666;44.350;9.222;2024-03-23T12:14:43;101318.78;;;14.58;100.00
32324;BME280;25666;44.350;9.222;2024-03-23T12:17:13;101313.19;;;14.58;100.00
32324;BME280;25666;44.350;9.222;2024-03-23T12:19:40;101307.91;;;14.72;100.00
32324;BME280;25666;44.350;9.222;2024-03-23T12:22:10;101307.41;;;14.51;100.00
32324;BME280;25666;44.350;9.222;2024-03-23T12:24:36;101283.53;;;14.57;100.00
32324;BME280;25666;44.350;9.222;2024-03-23T12:27:03;101281.44;;;14.54;100.00
32324;BME280;25666;44.350;9.222;2024-03-23T12:29:31;101289.34;;;14.48;100.00
32324;BME280;25666;44.350;9.222;2024-03-23T12:32:01;101284.53;;;14.49;100.00
32324;BME280;25666;44.350;9.222;2024-03-23T12:34:27;101281.03;;;14.36;100.00
32324;BME280;25666;44.350;9.222;2024-03-23T12:36:53;101272.25;;;14.38;100.00
32324;BME280;25666;44.350;9.222;2024-03-23T12:39:19;101278.75;;;14.42;100.00
32324;BME280;25666;44.350;9.222;2024-03-23T12:41:47;101284.88;;;14.63;100.00
32324;BME280;25666;44.350;9.222;2024-03-23T12:44:13;101265.91;;;14.57;100.00
32324;BME280;25666;44.350;9.222;2024-03-23T12:46:44;101254.16;;;14.86;100.00
32324;BME280;25666;44.350;9.222;2024-03-23T12:49:10;101271.53;;;15.11;100.00
32324;BME280;25666;44.350;9.222;2024-03-23T12:51:37;101265.06;;;14.72;100.00
32324;BME280;25666;44.350;9.222;2024-03-23T12:54:03;101244.50;;;14.83;100.00
32324;BME280;25666;44.350;9.222;2024-03-23T12:56:29;101245.19;;;14.96;100.00
32324;BME280;25666;44.350;9.222;2024-03-23T12:58:56;101237.97;;;15.14;100.00
32324;BME280;25666;44.350;9.222;2024-03-23T13:01:26;101228.72;;;15.14;100.00
32324;BME280;25666;44.350;9.222;2024-03-23T13:03:52;101218.31;;;14.95;100.00
32324;BME280;25666;44.350;9.222;2024-03-23T13:06:18;101231.53;;;15.14;100.00
32324;BME280;25666;44.350;9.222;2024-03-23T13:08:45;101244.69;;;15.10;100.00
32324;BME280;25666;44.350;9.222;2024-03-23T13:11:11;101218.97;;;14.88;100.00
32324;BME280;25666;44.350;9.222;2024-03-23T13:13:38;101213.88;;;15.13;100.00
32324;BME280;25666;44.350;9.222;2024-03-23T13:16:04;101231.69;;;15.01;100.00
32324;BME280;25666;44.350;9.222;2024-03-23T13:18:31;101215.44;;;14.91;100.00
32324;BME280;25666;44.350;9.222;2024-03-23T13:20:57;101191.78;;;15.08;100.00
32324;BME280;25666;44.350;9.222;2024-03-23T13:23:22;101205.50;;;14.94;100.00
32324;BME280;25666;44.350;9.222;2024-03-23T13:25:53;101195.97;;;14.79;100.00
32324;BME280;25666;44.350;9.222;2024-03-23T13:28:20;101188.97;;;14.35;100.00
32324;BME280;25666;44.350;9.222;2024-03-23T13:30:53;101218.69;;;14.39;100.00
32324;BME280;25666;44.350;9.222;2024-03-23T13:33:19;101209.03;;;14.37;100.00
32324;BME280;25666;44.350;9.222;2024-03-23T13:35:52;101199.63;;;14.29;100.00
32324;BME280;25666;44.350;9.222;2024-03-23T13:38:19;101203.97;;;14.42;100.00
32324;BME280;25666;44.350;9.222;2024-03-23T13:40:55;101194.75;;;14.42;100.00
32324;BME280;25666;44.350;9.222;2024-03-23T13:43:21;101178.75;;;14.42;100.00
32324;BME280;25666;44.350;9.222;2024-03-23T13:45:49;101184.16;;;14.51;100.00
32324;BME280;25666;44.350;9.222;2024-03-23T13:48:16;101188.19;;;14.54;100.00